• Join FlightAware (Why Join?)
  • Login
  • US Flag 
10:38PM EDT


 

Airport Tracker/Info


-or-


 

Live Flight TrackerFlight Track Log ✈ N588AC ✈ 09-Apr-2013 ✈ KBCB - KPHF

Flight Track Log - Related Links

Times and Time Zones

All times are in EDT time to prevent confusion due to time zone crossing. See the N588AC flight status page for this flight to view local times or setup timezone preferences in your user account.

Time Position Orientation Groundspeed Altitude Reporting Facility
EDT Latitude Longitude Course Direction KTS MPH feet Rate Location/Type
11:10AM 37.1881 -80.3003 84° East 252 290 7,700  Level Washington Center
11:11AM 37.1958 -80.2042 84° East 266 306 9,500 1,140 Climbing Washington Center
11:12AM 37.2019 -80.0978 86° East 305 351 10,000 420 Climbing Washington Center
11:13AM 37.2081 -79.9911 86° East 325 374 10,400 900 Climbing Washington Center
11:14AM 37.2167 -79.8717 85° East 332 382 11,900 1,680 Climbing Washington Center
11:15AM 37.2277 -79.8178 84° East  Level FlightAware Approximate
11:15AM 37.2228 -79.7547 86° East 332 382 13,800  Level Washington Center
11:16AM 37.2294 -79.6247 86° East 338 389 15,800 1,800 Climbing Washington Center
11:17AM 37.2397 -79.5050 84° East 338 389 17,400 1,500 Climbing Washington Center
11:18AM 37.2431 -79.3958 88° East 344 396 18,800 780 Climbing Washington Center
11:19AM 37.2514 -79.2683 85° East 349 402 19,000 60 Climbing Washington Center
11:20AM 37.2719 -79.1361 79° East 370 426 19,000  Level Washington Center
11:21AM 37.3031 -78.9967 74° East 375 432 19,000  Level Washington Center
11:22AM 37.3297 -78.8672 75° East 375 432 19,000  Level Washington Center
11:23AM 37.3561 -78.7403 75° East 370 426 19,000  Level Washington Center
11:24AM 37.3778 -78.6261 77° East 370 426 19,000  Level Washington Center
11:25AM 37.4017 -78.4989 77° East 370 426 19,000  Level Washington Center
11:26AM 37.4278 -78.3719 75° East 370 426 19,000  Level Washington Center
11:27AM 37.4517 -78.2419 77° East 376 433 19,000  Level Washington Center
11:28AM 37.4731 -78.1144 78° East 376 433 19,000  Level Washington Center
11:29AM 37.4986 -77.9897 75° East 371 427 19,000  Level Washington Center
11:30AM 37.5219 -77.8619 77° East 371 427 19,000 -300 Level Washington Center
11:31AM 37.5222 -77.7311 90° East 371 427 18,400 -780 Descending Washington Center
11:32AM 37.5161 -77.6000 93° East 366 421 17,500 -1,020 Descending Washington Center
11:33AM 37.5100 -77.4689 93° East 371 427 16,400 -1,140 Descending Washington Center
11:34AM 37.5036 -77.3431 94° East 366 421 15,300 -1,140 Descending Washington Center
11:35AM 37.4928 -77.2172 96° East 366 421 14,200 -1,200 Descending Washington Center
11:36AM 37.4800 -77.0808 97° East 361 415 13,000 -1,140 Descending Washington Center
11:37AM 37.4708 -76.9733 96° East 350 403 12,000 -1,140 Descending Washington Center
11:38AM 37.4653 -76.9028 96° East 348 400 11,400 -1,020 Descending Washington Center
11:38AM 37.4575 -76.8397 99° East 350 403 11,000 -420 Descending Washington Center
11:39AM 37.4539 -76.7875 95° East 343 395 11,000  Level Washington Center
11:39AM 37.4483 -76.7194 96° East 350 403 11,000 -120 Level Washington Center
11:40AM 37.4278 -76.6772 122° Southeast 335 386 10,900 -840 Descending Washington Center
11:40AM 37.3992 -76.6219 123° Southeast 320 368 10,200 -1,500 Descending Washington Center
11:41AM 37.3744 -76.5850 130° Southeast 315 362 9,400 -1,740 Descending Washington Center
11:41AM 37.3519 -76.5350 120° Southeast 315 362 8,500 -1,920 Descending Washington Center
11:42AM 37.3314 -76.5008 127° Southeast 284 327 7,500 -1,920 Descending Washington Center
11:42AM 37.3086 -76.4536 121° Southeast 298 343 6,600 -1,920 Descending Washington Center
11:43AM 37.2861 -76.4142 126° Southeast 257 296 5,600 -1,740 Descending Washington Center
11:43AM 37.2675 -76.3853 129° Southeast 268 308 4,900 -1,920 Descending Washington Center
11:44AM 37.2383 -76.3589 144° Southeast 228 262 3,700 -1,800 Descending Washington Center
11:44AM 37.2133 -76.3481 161° South 220 253 3,100 -1,500 Descending Washington Center
11:45AM 37.1883 -76.3714 217° Southwest 177 204 2,200 -1,500 Descending Washington Center
11:45AM 37.1778 -76.3894 234° Southwest 143 165 1,600 -1,020 Descending Washington Center
11:46AM 37.1650 -76.4233 245° Southwest 153 176 1,200 -720 Descending Washington Center
11:46AM 37.1567 -76.4361 231° Southwest 143 165 900 -720 Descending Washington Center
11:47AM 37.1481 -76.4594 245° Southwest 124 143 500 -600 Descending Washington Center
11:47AM 37.1397 -76.4725 231° Southwest 138 159 300 -480 Descending Washington Center